Time;durP1;ratioP1;P1;durP2;ratioP2;P2;SDS_P1;SDS_P2;PMS_P1;PMS_P2;Temp;Humidity;BMP_temperature;BMP_pressure;BME280_temperature;BME280_humidity;BME280_pressure;Samples;Min_cycle;Max_cycle;Signal;HPM_P1;HPM_P2
2023/10/01 00:00:17;;;;;;;10.45;3.97;;;;;;;17.17;75.00;100471.47;5016576;28;20061;-49
2023/10/01 00:02:45;;;;;;;12.65;5.95;;;;;;;17.21;74.80;100482.72;5017694;28;20052;-48
2023/10/01 00:05:12;;;;;;;14.38;4.18;;;;;;;17.24;74.34;100492.25;5015001;28;20096;-46
2023/10/01 00:07:38;;;;;;;11.73;2.63;;;;;;;17.25;75.07;100484.34;5013651;28;20505;-43
2023/10/01 00:10:10;;;;;;;10.90;4.70;;;;;;;17.29;74.30;100495.63;5014688;28;20041;-43
2023/10/01 00:12:38;;;;;;;7.30;3.53;;;;;;;17.29;74.40;100479.94;5011315;28;20042;-43
2023/10/01 00:15:12;;;;;;;10.23;4.40;;;;;;;17.30;74.69;100476.41;5011459;28;20114;-44
2023/10/01 00:17:40;;;;;;;11.63;3.80;;;;;;;17.30;75.45;100487.72;5014813;28;20140;-45
2023/10/01 00:20:16;;;;;;;12.18;4.25;;;;;;;17.33;75.35;100476.34;5012305;28;20124;-47
2023/10/01 00:22:44;;;;;;;;;;;;;;;17.21;75.88;100475.72;5016814;28;20061;-44
2023/10/01 00:25:11;;;;;;;12.48;4.43;;;;;;;17.35;75.50;100487.63;5021051;28;20011;-46
2023/10/01 00:27:38;;;;;;;11.23;4.32;;;;;;;17.38;74.58;100482.31;5017218;28;20558;-45
2023/10/01 00:30:09;;;;;;;11.20;4.57;;;;;;;17.41;75.08;100484.00;5019766;28;20092;-46
2023/10/01 00:32:36;;;;;;;11.65;4.10;;;;;;;17.44;75.61;100484.78;5009909;28;20057;-45
2023/10/01 00:35:04;;;;;;;8.68;3.75;;;;;;;17.45;74.96;100478.66;5009690;28;20081;-46
2023/10/01 00:37:32;;;;;;;9.93;4.18;;;;;;;17.48;75.58;100482.94;5013530;28;20050;-43
2023/10/01 00:39:59;;;;;;;8.88;3.90;;;;;;;17.50;74.95;100482.91;5021242;28;20045;-44
2023/10/01 00:42:28;;;;;;;8.30;3.22;;;;;;;17.52;75.46;100470.63;5013972;28;20050;-47
2023/10/01 00:44:57;;;;;;;8.38;3.50;;;;;;;17.55;75.10;100475.78;5020565;28;20046;-43
2023/10/01 00:47:27;;;;;;;7.22;5.05;;;;;;;17.58;75.65;100473.09;5022666;28;20107;-47
2023/10/01 00:49:57;;;;;;;8.57;3.88;;;;;;;17.58;75.93;100467.88;5019242;28;20045;-46
2023/10/01 00:52:24;;;;;;;10.55;4.65;;;;;;;17.58;75.75;100463.50;5024096;28;20053;-46
2023/10/01 00:54:51;;;;;;;7.80;4.50;;;;;;;17.60;75.98;100460.84;5021979;28;20049;-46
2023/10/01 00:57:18;;;;;;;8.50;3.58;;;;;;;17.61;75.82;100462.56;5021794;28;20144;-47
2023/10/01 00:59:45;;;;;;;8.32;3.55;;;;;;;17.60;75.58;100469.53;5021898;28;20414;-44
2023/10/01 01:02:15;;;;;;;6.72;3.63;;;;;;;17.63;75.51;100468.59;5021279;28;20046;-42
2023/10/01 01:04:46;;;;;;;11.07;4.35;;;;;;;17.64;75.86;100475.56;5017907;28;20186;-43
2023/10/01 01:07:15;;;;;;;8.00;4.38;;;;;;;17.65;75.99;100461.56;5020240;28;20501;-45
2023/10/01 01:09:43;;;;;;;8.15;3.80;;;;;;;17.66;75.27;100463.28;5016669;28;20057;-42
2023/10/01 01:12:10;;;;;;;8.70;3.47;;;;;;;17.67;75.43;100464.16;5015890;28;20045;-53
2023/10/01 01:14:36;;;;;;;7.15;3.45;;;;;;;17.68;76.21;100461.50;5016557;28;20064;-48
2023/10/01 01:17:04;;;;;;;7.65;3.42;;;;;;;17.70;76.12;100462.31;5018585;28;20061;-43
2023/10/01 01:19:34;;;;;;;8.20;3.25;;;;;;;17.71;76.14;100465.78;5011795;28;20049;-45
2023/10/01 01:22:03;;;;;;;9.13;3.53;;;;;;;17.72;75.46;100460.53;5015694;28;20048;-44
2023/10/01 01:24:30;;;;;;;10.15;3.88;;;;;;;17.74;76.22;100457.88;5018483;28;20046;-44
2023/10/01 01:27:00;;;;;;;9.82;3.30;;;;;;;17.75;75.56;100466.56;5025239;28;20053;-43
2023/10/01 01:29:34;;;;;;;10.00;4.93;;;;;;;17.78;75.15;100456.00;5012568;28;20763;-44
2023/10/01 01:32:13;;;;;;;10.25;3.97;;;;;;;17.79;75.39;100457.72;5017805;28;20045;-44
2023/10/01 01:34:41;;;;;;;9.52;4.05;;;;;;;17.79;75.88;100453.34;5011625;28;20046;-47
2023/10/01 01:37:08;;;;;;;8.82;3.65;;;;;;;17.80;76.21;100443.75;5014886;28;20050;-50
2023/10/01 01:42:12;;;;;;;11.07;2.10;;;;;;;17.82;76.03;100434.06;5103163;27;20392;-43
2023/10/01 01:44:38;;;;;;;6.60;1.90;;;;;;;17.85;75.46;100436.59;5050926;28;20052;-46
2023/10/01 01:47:07;;;;;;;5.72;2.20;;;;;;;17.83;76.24;100438.41;5075128;28;20055;-46
2023/10/01 01:49:34;;;;;;;6.72;2.30;;;;;;;17.84;76.00;100445.38;5064429;28;20052;-47
2023/10/01 01:52:03;;;;;;;6.13;2.25;;;;;;;17.83;76.18;100427.91;5077261;28;20052;-45
2023/10/01 01:54:31;;;;;;;9.30;3.00;;;;;;;17.82;75.75;100431.44;5073354;28;20080;-49
2023/10/01 01:56:58;;;;;;;7.35;2.40;;;;;;;17.84;76.07;100440.13;5070750;28;20058;-42
2023/10/01 01:59:29;;;;;;;6.25;2.15;;;;;;;17.84;76.39;100434.91;5063117;28;20048;-43
2023/10/01 02:01:56;;;;;;;9.35;2.47;;;;;;;17.86;76.25;100438.31;5063011;28;20577;-42
2023/10/01 02:04:24;;;;;;;9.68;2.53;;;;;;;17.86;76.27;100433.09;5053862;28;20130;-47
2023/10/01 02:06:51;;;;;;;8.45;2.53;;;;;;;17.86;75.56;100427.84;5062664;28;20044;-44
2023/10/01 02:09:20;;;;;;;9.35;2.17;;;;;;;17.87;76.54;100429.59;5068725;28;20044;-49
2023/10/01 02:11:48;;;;;;;9.30;2.55;;;;;;;17.89;76.23;100427.75;5064107;28;20076;-49
2023/10/01 02:14:30;;;;;;;6.95;2.28;;;;;;;17.90;76.31;100429.47;5066608;28;20056;-44
2023/10/01 02:17:13;;;;;;;9.63;2.05;;;;;;;17.89;76.51;100427.75;5039815;28;20049;-44
2023/10/01 02:19:46;;;;;;;6.88;1.73;;;;;;;17.89;76.78;100422.53;5085476;28;20054;-45
2023/10/01 02:22:14;;;;;;;6.07;2.08;;;;;;;17.90;76.49;100416.38;5094674;28;20139;-43
2023/10/01 02:27:18;;;;;;;7.32;2.20;;;;;;;17.94;76.43;100414.53;5073399;27;20411;-48
2023/10/01 02:30:10;;;;;;;6.32;2.47;;;;;;;17.93;76.61;100403.19;5021073;28;20619;-45
2023/10/01 02:32:35;;;;;;;5.55;2.03;;;;;;;17.95;75.74;100417.13;5044266;28;20046;-49
2023/10/01 02:35:34;;;;;;;6.10;1.42;;;;;;;17.96;76.18;100410.97;5020537;28;20042;-46
2023/10/01 02:37:49;;;;;;;5.50;2.38;;;;;;;17.97;76.26;100410.06;5018452;28;20491;-49
2023/10/01 02:40:18;;;;;;;6.38;1.98;;;;;;;17.99;75.93;100407.41;5014495;28;20414;-45
2023/10/01 02:42:49;;;;;;;5.60;1.90;;;;;;;17.99;76.12;100403.03;5017657;28;20042;-46
2023/10/01 02:45:30;;;;;;;4.78;1.75;;;;;;;18.01;75.83;100409.97;5020746;28;20061;-45
2023/10/01 02:48:13;;;;;;;4.30;1.83;;;;;;;18.00;76.58;100398.63;5022561;28;20069;-53
2023/10/01 02:50:42;;;;;;;6.13;1.75;;;;;;;18.03;76.28;100400.34;5036753;28;20053;-44
2023/10/01 02:53:09;;;;;;;4.30;1.50;;;;;;;18.02;75.93;100402.09;5021210;28;20559;-49
2023/10/01 02:55:44;;;;;;;5.05;1.80;;;;;;;18.05;76.32;100393.28;5018528;28;20034;-45
2023/10/01 02:58:26;;;;;;;6.00;1.60;;;;;;;18.07;76.65;100399.34;5023140;28;20085;-44
2023/10/01 03:00:54;;;;;;;3.88;1.38;;;;;;;18.07;76.74;100394.09;5020083;28;20057;-47
2023/10/01 03:03:31;;;;;;;5.40;1.90;;;;;;;18.06;76.53;100385.38;5016282;28;20057;-46
2023/10/01 03:06:08;;;;;;;3.58;1.48;;;;;;;18.07;76.37;100394.09;5023405;28;20053;-46
2023/10/01 03:11:40;;;;;;;5.25;1.42;;;;;;;18.10;76.81;100384.41;5053671;28;20397;-44
2023/10/01 03:14:18;;;;;;;5.50;1.92;;;;;;;18.10;76.28;100388.78;5036189;28;20379;-47
2023/10/01 03:16:53;;;;;;;3.60;1.70;;;;;;;18.11;76.36;100391.34;5044485;28;20560;-47
2023/10/01 03:19:34;;;;;;;3.00;1.35;;;;;;;18.13;76.47;100387.84;5044627;28;20135;-44
2023/10/01 03:22:15;;;;;;;4.68;1.73;;;;;;;18.11;76.24;100390.50;5043292;28;20395;-46
2023/10/01 03:24:46;;;;;;;4.60;1.65;;;;;;;18.13;76.68;100387.84;5041957;28;20521;-46
2023/10/01 03:27:33;;;;;;;4.32;1.25;;;;;;;18.13;76.76;100388.69;5031531;28;20408;-49
2023/10/01 03:30:21;;;;;;;3.90;1.52;;;;;;;18.13;76.80;100393.94;5041942;28;20059;-45
2023/10/01 03:32:48;;;;;;;5.63;1.80;;;;;;;18.11;76.34;100383.50;5038165;28;20045;-45
2023/10/01 03:35:20;;;;;;;3.65;2.13;;;;;;;18.13;77.42;100383.44;5042364;28;20149;-46
2023/10/01 03:38:09;;;;;;;3.20;1.05;;;;;;;18.13;76.69;100383.44;5039811;28;20048;-43
2023/10/01 03:40:36;;;;;;;2.88;1.40;;;;;;;18.15;76.85;100376.41;5040171;28;20049;-42
2023/10/01 03:43:04;;;;;;;3.72;1.55;;;;;;;18.16;76.34;100378.13;5039639;28;20094;-47
2023/10/01 03:48:19;;;;;;;4.00;1.27;;;;;;;18.20;76.97;100390.25;5017004;28;20413;-45
2023/10/01 03:50:46;;;;;;;3.70;1.55;;;;;;;18.20;77.02;100379.75;4984532;28;20046;-48
2023/10/01 03:53:17;;;;;;;3.55;2.25;;;;;;;18.23;76.63;100390.16;4982041;28;20393;-45
2023/10/01 03:55:46;;;;;;;4.60;1.45;;;;;;;18.23;76.09;100395.41;5002903;28;20050;-47
2023/10/01 03:58:26;;;;;;;3.60;1.17;;;;;;;18.26;76.58;100393.56;4987620;28;20050;-45
2023/10/01 04:00:53;;;;;;;5.18;1.30;;;;;;;18.28;76.58;100394.41;4981690;28;20060;-45
2023/10/01 04:03:21;;;;;;;5.63;1.55;;;;;;;18.30;76.70;100403.09;4981557;28;20166;-45
2023/10/01 04:05:56;;;;;;;3.58;1.27;;;;;;;18.30;76.45;100405.72;4983493;28;20069;-46
2023/10/01 04:08:23;;;;;;;3.25;1.17;;;;;;;18.31;76.70;100413.50;4981157;28;20050;-46
2023/10/01 04:10:58;;;;;;;3.95;1.48;;;;;;;18.32;76.68;100399.53;4978225;28;20054;-47
2023/10/01 04:13:27;;;;;;;4.30;1.42;;;;;;;18.34;76.44;100402.94;4983848;28;20049;-46
2023/10/01 04:15:56;;;;;;;3.92;1.02;;;;;;;18.35;76.41;100403.81;4981374;28;20046;-45
2023/10/01 04:18:24;;;;;;;2.80;0.75;;;;;;;18.35;76.07;100398.56;4979956;28;20476;-43
2023/10/01 04:23:54;;;;;;;3.55;2.33;;;;;;;18.39;76.11;100404.56;5056805;28;20384;-41
2023/10/01 04:26:22;;;;;;;3.50;1.40;;;;;;;18.40;76.00;100415.00;5018309;28;20516;-46
2023/10/01 04:28:54;;;;;;;2.28;1.05;;;;;;;18.42;75.76;100421.09;5012529;28;20106;-49
2023/10/01 04:31:52;;;;;;;2.47;2.25;;;;;;;18.44;76.12;100418.41;5016407;28;20120;-46
2023/10/01 04:34:12;;;;;;;2.70;2.00;;;;;;;18.45;76.16;100415.75;5004287;28;20116;-47
2023/10/01 04:36:42;;;;;;;3.00;1.95;;;;;;;18.45;75.77;100415.75;5010095;28;20048;-46
2023/10/01 04:39:09;;;;;;;3.38;1.75;;;;;;;18.46;76.21;100406.97;5012186;28;20527;-49
2023/10/01 04:41:37;;;;;;;2.60;2.38;;;;;;;18.47;76.05;100407.81;5015412;28;20049;-49
2023/10/01 04:44:08;;;;;;;4.20;2.80;;;;;;;18.48;75.98;100410.38;5017875;28;20541;-42
2023/10/01 04:46:37;;;;;;;3.80;0.93;;;;;;;18.49;76.21;100404.25;5018713;28;20384;-44
2023/10/01 04:49:08;;;;;;;4.32;2.80;;;;;;;18.51;76.42;100409.47;5016493;28;20050;-46
2023/10/01 04:51:56;;;;;;;2.88;2.00;;;;;;;18.52;75.93;100415.53;5014989;28;20491;-43
2023/10/01 04:54:25;;;;;;;2.92;2.65;;;;;;;18.53;75.98;100402.38;5013682;28;20049;-49
2023/10/01 04:56:55;;;;;;;3.45;3.13;;;;;;;18.54;76.08;100408.50;5011794;28;20042;-46
2023/10/01 04:59:21;;;;;;;;;;;;;;;18.39;76.82;100394.94;5017302;28;20053;-48
2023/10/01 05:01:48;;;;;;;3.00;2.20;;;;;;;18.50;75.73;100416.47;5016845;28;19929;-44
2023/10/01 05:04:16;;;;;;;3.78;0.95;;;;;;;18.54;75.78;100419.00;5010654;28;20388;-42
2023/10/01 05:06:59;;;;;;;4.50;2.08;;;;;;;18.56;75.23;100411.94;5012912;28;20046;-41
2023/10/01 05:09:29;;;;;;;2.95;2.50;;;;;;;18.56;76.20;100412.78;5010228;28;20058;-47
2023/10/01 05:11:56;;;;;;;2.08;1.83;;;;;;;18.57;75.72;100405.75;5009663;28;20041;-45
2023/10/01 05:14:23;;;;;;;2.78;2.00;;;;;;;18.58;75.54;100404.88;5012163;28;20057;-42
2023/10/01 05:16:49;;;;;;;4.80;2.22;;;;;;;18.58;75.63;100399.63;5013826;28;20056;-42
2023/10/01 05:19:23;;;;;;;4.05;2.40;;;;;;;18.59;75.39;100396.09;5016983;28;20057;-45
2023/10/01 05:21:52;;;;;;;2.25;1.70;;;;;;;18.60;76.01;100392.56;5010155;28;20148;-43
2023/10/01 05:24:36;;;;;;;3.20;1.13;;;;;;;18.58;76.08;100391.78;5011381;28;20251;-45
2023/10/01 05:27:09;;;;;;;3.13;2.22;;;;;;;18.55;76.37;100395.34;5006574;28;20518;-44
2023/10/01 05:29:39;;;;;;;3.85;1.42;;;;;;;18.56;75.86;100404.06;5000598;28;20061;-44
2023/10/01 05:32:06;;;;;;;3.08;1.75;;;;;;;18.57;75.94;100398.78;4999086;28;20134;-44
2023/10/01 05:34:33;;;;;;;2.83;1.70;;;;;;;18.58;75.81;100397.00;4998182;28;20109;-42
2023/10/01 05:40:04;;;;;;;3.40;2.42;;;;;;;18.57;76.17;100406.63;5003609;28;20042;-45
2023/10/01 05:42:40;;;;;;;2.47;1.90;;;;;;;18.58;75.61;100410.13;4993330;28;20648;-46
2023/10/01 05:45:18;;;;;;;2.03;1.33;;;;;;;18.59;75.99;100396.09;4996077;28;20057;-48
2023/10/01 05:47:51;;;;;;;3.45;2.50;;;;;;;18.59;75.91;100401.34;4994290;28;21036;-46
2023/10/01 05:50:19;;;;;;;4.07;1.90;;;;;;;18.59;75.47;100407.47;4991419;28;20050;-43
2023/10/01 05:52:47;;;;;;;5.13;2.38;;;;;;;18.59;75.70;100401.34;4989564;28;20042;-44
2023/10/01 05:55:15;;;;;;;4.22;2.72;;;;;;;18.60;75.90;100392.56;4991833;28;20053;-42
2023/10/01 05:57:43;;;;;;;5.70;2.70;;;;;;;18.60;75.69;100392.56;4991565;28;20133;-45
2023/10/01 06:00:26;;;;;;;2.78;1.67;;;;;;;18.60;75.96;100393.44;4987567;28;20053;-44
2023/10/01 06:03:00;;;;;;;2.55;2.00;;;;;;;18.57;75.42;100390.03;4987999;28;20046;-41
2023/10/01 06:05:46;;;;;;;3.90;2.55;;;;;;;18.57;75.79;100392.66;4994226;28;20050;-46
2023/10/01 06:08:15;;;;;;;2.53;1.63;;;;;;;18.56;76.13;100397.06;4993262;28;20057;-43
2023/10/01 06:10:59;;;;;;;2.65;1.80;;;;;;;18.54;76.09;100400.63;4995503;28;20133;-45
2023/10/01 06:13:28;;;;;;;2.70;1.77;;;;;;;18.59;75.73;100396.09;4989426;28;20066;-42
2023/10/01 06:15:57;;;;;;;3.35;1.88;;;;;;;18.60;76.07;100398.69;4991619;28;20054;-47
2023/10/01 06:18:26;;;;;;;2.50;1.88;;;;;;;18.61;75.93;100400.38;4991162;28;20054;-51
2023/10/01 06:20:53;;;;;;;2.58;2.38;;;;;;;18.62;75.65;100414.38;4990076;28;20602;-47
2023/10/01 06:23:21;;;;;;;2.17;1.00;;;;;;;18.64;75.49;100402.06;4990183;28;20496;-43
2023/10/01 06:25:53;;;;;;;2.03;1.58;;;;;;;18.65;75.69;100411.66;4990921;28;20046;-46
2023/10/01 06:28:20;;;;;;;2.85;1.70;;;;;;;18.65;76.01;100409.03;4990343;28;20077;-47
2023/10/01 06:30:48;;;;;;;4.50;2.65;;;;;;;18.64;75.48;100404.69;4994141;28;21849;-42
2023/10/01 06:33:35;;;;;;;2.28;1.75;;;;;;;18.63;75.90;100416.09;4990270;28;20049;-43
2023/10/01 06:38:53;;;;;;;3.05;2.00;;;;;;;18.64;75.67;100417.78;4985121;28;21260;-44
2023/10/01 06:41:25;;;;;;;2.30;2.08;;;;;;;18.66;75.29;100409.88;4991692;28;20050;-45
2023/10/01 06:43:54;;;;;;;2.08;1.98;;;;;;;18.68;74.99;100405.47;4990293;28;20065;-45
2023/10/01 06:46:24;;;;;;;3.00;2.05;;;;;;;18.65;75.76;100411.66;4992295;28;20072;-47
2023/10/01 06:48:51;;;;;;;1.98;1.77;;;;;;;18.66;75.61;100402.00;4995048;28;20046;-44
2023/10/01 06:51:21;;;;;;;3.40;1.52;;;;;;;18.67;75.64;100415.09;4983995;28;20057;-45
2023/10/01 06:53:53;;;;;;;2.33;2.00;;;;;;;18.70;75.62;100412.38;4990764;28;20050;-46
2023/10/01 06:56:21;;;;;;;3.20;1.92;;;;;;;18.72;75.78;100417.56;4990340;28;20444;-43
2023/10/01 07:01:56;;;;;;;2.38;2.17;;;;;;;18.75;75.60;100427.97;4990717;28;20467;-45
2023/10/01 07:04:23;;;;;;;1.80;1.67;;;;;;;18.75;75.74;100428.81;4983564;28;20157;-45
2023/10/01 07:06:50;;;;;;;2.45;2.25;;;;;;;18.75;75.24;100444.56;4991594;28;20064;-45
2023/10/01 07:09:38;;;;;;;2.25;2.05;;;;;;;18.78;75.37;100442.75;4989011;28;21093;-47
2023/10/01 07:12:06;;;;;;;2.28;1.60;;;;;;;18.78;75.12;100448.00;4989277;28;20057;-48
2023/10/01 07:14:50;;;;;;;2.22;1.95;;;;;;;18.78;75.52;100450.63;4989257;28;20129;-45
2023/10/01 07:17:23;;;;;;;2.38;1.67;;;;;;;18.80;75.08;100451.44;4991644;28;20054;-46
2023/10/01 07:19:59;;;;;;;5.57;3.55;;;;;;;18.82;75.13;100455.75;4988401;28;20050;-44
2023/10/01 07:22:31;;;;;;;4.03;2.13;;;;;;;18.83;75.47;100451.34;4988061;28;20053;-47
2023/10/01 07:24:59;;;;;;;2.42;2.22;;;;;;;18.86;74.97;100453.88;4990977;28;20046;-43
2023/10/01 07:27:27;;;;;;;2.13;1.85;;;;;;;18.86;75.15;100452.13;4996429;28;20096;-43
2023/10/01 07:29:56;;;;;;;2.55;2.28;;;;;;;18.89;75.06;100461.66;4993301;28;20129;-44
2023/10/01 07:32:25;;;;;;;2.25;2.05;;;;;;;18.91;75.08;100451.97;4992446;28;20639;-45
2023/10/01 07:34:58;;;;;;;1.95;1.65;;;;;;;18.91;75.40;100449.34;4990667;28;20046;-45
2023/10/01 07:37:26;;;;;;;3.08;1.98;;;;;;;18.93;75.04;100447.53;4994762;28;20634;-47
2023/10/01 07:39:55;;;;;;;2.85;2.00;;;;;;;18.96;75.35;100450.06;4989688;28;20042;-45
2023/10/01 07:42:23;;;;;;;2.40;2.03;;;;;;;18.99;75.05;100463.06;4993439;28;20046;-48
2023/10/01 07:44:50;;;;;;;2.95;1.95;;;;;;;19.00;75.11;100459.56;4994098;28;20054;-45
2023/10/01 07:47:32;;;;;;;2.47;2.03;;;;;;;18.99;74.94;100456.97;4992069;28;20141;-42
2023/10/01 07:50:05;;;;;;;3.88;3.35;;;;;;;19.02;75.32;100459.50;4991217;28;20078;-44
2023/10/01 07:52:36;;;;;;;2.10;1.58;;;;;;;19.05;74.82;100461.19;4992614;28;20495;-46
2023/10/01 07:55:29;;;;;;;6.18;3.42;;;;;;;19.07;74.65;100462.00;4991245;28;20129;-46
2023/10/01 07:57:51;;;;;;;4.80;1.92;;;;;;;19.10;75.25;100464.53;4988823;28;20045;-45
2023/10/01 08:00:26;;;;;;;2.65;2.42;;;;;;;19.12;74.86;100452.25;4987822;28;20053;-47
2023/10/01 08:05:40;;;;;;;6.32;2.78;;;;;;;19.18;75.04;100451.19;4999670;28;20066;-44
2023/10/01 08:08:09;;;;;;;2.72;2.42;;;;;;;19.23;74.74;100458.00;5000004;28;20431;-43
2023/10/01 08:10:37;;;;;;;3.50;1.90;;;;;;;19.30;75.13;100444.66;4989246;28;20045;-49
2023/10/01 08:13:07;;;;;;;2.05;1.40;;;;;;;19.38;74.96;100446.13;4992777;28;20042;-45
2023/10/01 08:15:38;;;;;;;3.15;1.20;;;;;;;19.57;74.68;100453.38;4991597;28;20043;-50
2023/10/01 08:21:00;;;;;;;1.35;0.52;;;;;;;19.87;73.88;100434.84;4991850;28;20568;-50
2023/10/01 08:23:31;;;;;;;3.38;3.15;;;;;;;19.90;73.40;100433.88;4991937;28;20058;-43
2023/10/01 08:26:31;;;;;;;2.58;2.10;;;;;;;19.92;73.51;100429.41;5000109;28;20050;-44
2023/10/01 08:28:56;;;;;;;1.52;0.85;;;;;;;19.97;73.48;100430.13;4987750;28;20414;-49
2023/10/01 08:37:06;;;;;;;2.00;1.52;;;;;;;20.16;73.12;100424.19;4995096;28;20050;-44
2023/10/01 08:39:33;;;;;;;2.35;1.95;;;;;;;20.16;72.77;100418.94;4995615;28;20100;-46
2023/10/01 08:42:08;;;;;;;1.80;1.45;;;;;;;20.22;72.83;100439.75;4990800;28;20054;-50
2023/10/01 08:47:35;;;;;;;4.18;1.42;;;;;;;20.39;72.98;100451.41;5116283;27;20408;-45
2023/10/01 08:52:56;;;;;;;2.22;1.08;;;;;;;20.45;72.28;100461.72;5076751;28;20056;-45
2023/10/01 08:55:35;;;;;;;2.70;0.88;;;;;;;20.44;72.47;100465.28;5082043;28;20040;-45
2023/10/01 09:01:11;;;;;;;1.25;0.85;;;;;;;20.34;72.22;100467.41;5031122;27;20414;-45
2023/10/01 09:03:47;;;;;;;1.25;0.90;;;;;;;20.30;72.33;100465.78;5020529;28;20062;-46
2023/10/01 09:06:32;;;;;;;2.22;1.23;;;;;;;20.28;72.67;100471.09;5014887;28;20046;-45
2023/10/01 09:09:19;;;;;;;1.50;1.10;;;;;;;20.24;72.46;100476.53;5018977;28;20128;-45
2023/10/01 09:11:50;;;;;;;1.67;0.80;;;;;;;20.22;72.60;100466.06;5015136;28;20061;-45
2023/10/01 09:14:34;;;;;;;1.98;0.70;;;;;;;20.23;72.38;100478.28;5016384;28;20053;-46
2023/10/01 09:17:24;;;;;;;1.20;0.70;;;;;;;20.20;72.28;100473.16;5015814;28;20388;-47
2023/10/01 09:19:54;;;;;;;2.85;1.30;;;;;;;20.26;72.73;100470.28;5012536;28;20049;-44
2023/10/01 09:25:25;;;;;;;1.92;1.83;;;;;;;20.32;72.75;100473.59;5039050;28;20435;-50
2023/10/01 09:30:31;;;;;;;1.77;0.95;;;;;;;20.47;72.13;100470.41;5047947;28;20400;-52
2023/10/01 09:33:05;;;;;;;1.40;0.90;;;;;;;20.51;72.05;100479.03;5038861;28;20720;-47
2023/10/01 09:35:49;;;;;;;1.33;0.70;;;;;;;20.48;72.37;100477.41;5038717;28;20046;-46
2023/10/01 09:38:19;;;;;;;1.42;0.60;;;;;;;20.50;72.03;100465.03;5038683;28;20510;-48
2023/10/01 09:40:47;;;;;;;1.25;0.70;;;;;;;20.49;71.84;100484.38;5034849;28;20526;-44
2023/10/01 09:43:19;;;;;;;1.90;0.80;;;;;;;20.49;72.26;100484.38;5033070;28;20048;-46
2023/10/01 09:45:48;;;;;;;1.90;0.93;;;;;;;20.50;72.23;100491.34;5065007;28;20045;-45
2023/10/01 09:51:13;;;;;;;1.67;0.90;;;;;;;20.53;72.28;100480.69;5025336;28;20418;-56
2023/10/01 09:53:48;;;;;;;2.40;1.17;;;;;;;20.51;71.98;100477.28;4961187;28;20063;-45
2023/10/01 09:59:03;;;;;;;2.72;0.82;;;;;;;20.45;72.11;100488.03;4943351;28;20050;-46
2023/10/01 10:01:32;;;;;;;2.30;1.45;;;;;;;20.44;71.82;100491.59;4959412;28;20047;-45
2023/10/01 10:04:01;;;;;;;2.72;1.55;;;;;;;20.43;71.82;100487.22;4955854;28;20134;-45
2023/10/01 10:06:30;;;;;;;2.15;1.02;;;;;;;20.45;72.16;100490.66;4960362;28;20055;-45
2023/10/01 10:09:07;;;;;;;2.92;1.13;;;;;;;20.45;72.05;100485.41;4959474;28;20062;-47
2023/10/01 10:11:37;;;;;;;2.70;1.30;;;;;;;20.44;72.02;100494.22;4978679;28;20482;-44
2023/10/01 10:14:44;;;;;;;1.60;0.75;;;;;;;20.42;71.79;100485.50;4981842;28;20065;-47
2023/10/01 10:17:19;;;;;;;2.58;0.88;;;;;;;20.50;71.97;100486.06;4964124;28;20057;-49
2023/10/01 10:23:21;;;;;;;2.75;0.95;;;;;;;20.61;71.62;100488.31;4986417;28;20404;-47
2023/10/01 10:25:48;;;;;;;4.13;1.08;;;;;;;20.64;72.07;100487.34;4978719;28;20133;-48
2023/10/01 10:28:25;;;;;;;4.15;1.08;;;;;;;20.67;71.71;100489.88;4973141;28;20080;-46
2023/10/01 10:31:30;;;;;;;2.40;1.25;;;;;;;20.64;71.65;100490.81;4974775;28;20129;-47
2023/10/01 10:34:21;;;;;;;2.08;1.00;;;;;;;20.72;71.88;100495.81;4980746;28;20054;-44
2023/10/01 10:36:54;;;;;;;3.65;1.10;;;;;;;20.76;71.41;100483.38;4978494;28;20050;-46
2023/10/01 10:42:28;;;;;;;2.33;1.35;;;;;;;20.77;71.34;100480.69;5008995;28;20409;-48
2023/10/01 10:47:59;;;;;;;2.00;1.00;;;;;;;20.80;71.25;100470.03;5072200;27;20396;-46
2023/10/01 10:53:42;;;;;;;2.53;2.05;;;;;;;20.79;71.22;100459.56;5035977;27;20919;-44
2023/10/01 10:56:14;;;;;;;2.70;2.13;;;;;;;20.84;71.65;100464.66;5018038;28;20061;-43
2023/10/01 10:59:01;;;;;;;3.13;1.00;;;;;;;20.79;71.00;100463.06;5025127;28;20417;-46
2023/10/01 11:01:43;;;;;;;3.00;2.30;;;;;;;20.77;71.25;100462.25;5026880;28;20069;-46
2023/10/01 11:04:16;;;;;;;4.60;2.20;;;;;;;20.77;71.06;100462.25;5019908;28;20045;-43
2023/10/01 11:06:44;;;;;;;3.38;2.03;;;;;;;20.73;71.21;100465.91;5023301;28;20115;-44
2023/10/01 11:09:31;;;;;;;2.75;1.80;;;;;;;20.72;70.79;100466.84;5079526;23;20129;-43
2023/10/01 11:14:36;;;;;;;2.22;0.90;;;;;;;20.71;71.26;100462.50;5032557;28;20506;-44
2023/10/01 11:17:07;;;;;;;1.58;1.10;;;;;;;20.72;70.95;100466.84;4980455;28;20140;-44
2023/10/01 11:19:35;;;;;;;3.13;1.15;;;;;;;20.75;71.28;100461.47;4979984;28;20526;-47
2023/10/01 11:22:05;;;;;;;1.63;0.75;;;;;;;20.77;71.24;100461.41;4980928;28;20050;-44
2023/10/01 11:27:43;;;;;;;1.70;1.08;;;;;;;20.77;71.00;100466.69;5033337;27;20390;-44
2023/10/01 11:43:23;;;;;;;2.33;1.00;;;;;;;21.11;71.05;100453.97;1490954;26;20057;-44
2023/10/01 11:46:24;;;;;;;3.92;1.58;;;;;;;21.17;70.79;100453.72;5017916;28;20069;-45
2023/10/01 11:48:59;;;;;;;4.93;1.35;;;;;;;21.26;70.33;100460.38;5035467;28;20063;-42
2023/10/01 11:51:48;;;;;;;1.75;0.77;;;;;;;21.27;70.86;100448.91;5044533;28;20135;-45
2023/10/01 11:54:20;;;;;;;3.70;1.48;;;;;;;21.35;70.85;100451.25;5049350;28;20145;-45
2023/10/01 11:57:04;;;;;;;4.43;1.35;;;;;;;21.39;70.28;100458.09;5024322;28;20041;-45
2023/10/01 11:59:34;;;;;;;3.25;2.17;;;;;;;21.43;70.20;100454.41;5043448;28;20141;-44
2023/10/01 12:04:56;;;;;;;3.00;1.05;;;;;;;21.43;69.76;100454.41;5038835;28;20053;-47
2023/10/01 12:07:32;;;;;;;2.35;1.13;;;;;;;21.45;69.93;100455.22;5038007;28;20067;-48
2023/10/01 12:10:04;;;;;;;2.42;1.20;;;;;;;21.50;70.34;100455.88;5040136;28;20053;-44
2023/10/01 12:12:39;;;;;;;2.45;1.20;;;;;;;21.55;70.22;100448.63;5040929;28;20056;-45
2023/10/01 12:15:51;;;;;;;4.85;1.30;;;;;;;21.62;69.59;100466.81;5032891;28;20057;-47
2023/10/01 12:17:55;;;;;;;3.75;1.75;;;;;;;21.66;70.03;100455.22;5036552;28;20053;-50
2023/10/01 12:20:22;;;;;;;5.18;1.85;;;;;;;21.70;70.35;100459.44;5032467;28;20131;-48
2023/10/01 12:28:25;;;;;;;4.90;2.95;;;;;;;21.68;70.04;100456.00;5008862;28;20401;-50
2023/10/01 12:30:57;;;;;;;5.30;2.70;;;;;;;21.68;69.26;100454.22;4995486;28;20046;-50
2023/10/01 12:33:40;;;;;;;5.15;2.67;;;;;;;21.67;69.89;100456.94;4996460;28;20078;-49
2023/10/01 12:37:07;;;;;;;3.25;2.80;;;;;;;21.64;69.49;100457.91;4997397;28;20046;-45
2023/10/01 12:39:16;;;;;;;5.40;2.70;;;;;;;21.64;69.84;100451.78;4992996;28;20105;-48
2023/10/01 12:41:56;;;;;;;3.60;2.85;;;;;;;21.64;69.39;100451.78;4997436;28;20419;-47
2023/10/01 12:44:25;;;;;;;4.60;2.75;;;;;;;21.62;69.39;100459.78;4994873;28;20046;-50
2023/10/01 12:49:33;;;;;;;4.45;1.60;;;;;;;21.54;69.13;100457.47;5061753;27;20775;-49
2023/10/01 12:52:01;;;;;;;5.68;2.53;;;;;;;21.48;69.26;100452.44;5054126;28;20049;-55
2023/10/01 12:54:28;;;;;;;5.10;1.55;;;;;;;21.43;69.68;100455.28;5056172;28;20099;-43
2023/10/01 13:00:21;;;;;;;8.02;2.05;;;;;;;21.43;68.86;100447.38;5048623;28;20750;-47
2023/10/01 13:02:43;;;;;;;5.20;1.77;;;;;;;21.45;68.92;100436.78;5013463;28;20057;-46
2023/10/01 13:05:27;;;;;;;2.08;0.93;;;;;;;21.48;69.29;100447.16;5018200;28;20049;-45
2023/10/01 13:07:56;;;;;;;3.83;1.10;;;;;;;21.51;69.03;100449.69;5016372;28;20147;-49
2023/10/01 13:10:50;;;;;;;5.35;2.38;;;;;;;21.55;69.12;100453.06;5026972;28;20057;-44
2023/10/01 13:13:11;;;;;;;5.07;1.98;;;;;;;21.55;68.91;100447.78;5028292;28;20057;-45
2023/10/01 13:15:39;;;;;;;10.73;3.40;;;;;;;21.56;68.51;100452.13;5018882;28;20057;-44
2023/10/01 13:18:15;;;;;;;4.97;2.30;;;;;;;21.56;68.49;100445.09;5026061;28;20112;-45
2023/10/01 13:23:41;;;;;;;7.20;2.55;;;;;;;21.58;69.11;100459.03;5039911;28;20408;-50
2023/10/01 13:26:31;;;;;;;11.77;3.92;;;;;;;21.59;68.81;100454.63;5022231;28;20153;-46
2023/10/01 13:29:00;;;;;;;12.30;4.15;;;;;;;21.58;69.01;100453.78;5020898;28;20053;-51
2023/10/01 13:34:07;;;;;;;10.48;3.33;;;;;;;21.57;68.33;100457.34;5060976;27;20395;-46